sensor_id;sensor_type;location;lat;lon;timestamp;pressure;altitude;pressure_sealevel;temperature;humidity
47330;BME280;33060;50.178;7.570;2023-12-20T00:01:59;96926.97;;;6.54;100.00
47330;BME280;33060;50.178;7.570;2023-12-20T00:04:26;96920.38;;;6.63;100.00
47330;BME280;33060;50.178;7.570;2023-12-20T00:06:52;96922.16;;;6.31;100.00
47330;BME280;33060;50.178;7.570;2023-12-20T00:09:19;96929.75;;;6.51;100.00
47330;BME280;33060;50.178;7.570;2023-12-20T00:11:46;96928.97;;;6.65;100.00
47330;BME280;33060;50.178;7.570;2023-12-20T00:14:12;96929.84;;;6.18;100.00
47330;BME280;33060;50.178;7.570;2023-12-20T00:16:39;96934.22;;;6.49;100.00
47330;BME280;33060;50.178;7.570;2023-12-20T00:19:06;96932.22;;;6.38;100.00
47330;BME280;33060;50.178;7.570;2023-12-20T00:21:33;96941.22;;;6.01;100.00
47330;BME280;33060;50.178;7.570;2023-12-20T00:23:59;96935.44;;;6.43;100.00
47330;BME280;33060;50.178;7.570;2023-12-20T00:26:26;96923.00;;;6.31;100.00
47330;BME280;33060;50.178;7.570;2023-12-20T00:28:55;96924.44;;;6.53;100.00
47330;BME280;33060;50.178;7.570;2023-12-20T00:31:21;96920.38;;;6.31;100.00
47330;BME280;33060;50.178;7.570;2023-12-20T00:33:48;96916.72;;;6.49;100.00
47330;BME280;33060;50.178;7.570;2023-12-20T00:36:15;96917.84;;;6.30;100.00
47330;BME280;33060;50.178;7.570;2023-12-20T00:38:41;96910.66;;;6.49;100.00
47330;BME280;33060;50.178;7.570;2023-12-20T00:41:08;96915.78;;;6.50;100.00
47330;BME280;33060;50.178;7.570;2023-12-20T00:43:35;96914.91;;;6.51;100.00
47330;BME280;33060;50.178;7.570;2023-12-20T00:46:02;96920.22;;;6.34;100.00
47330;BME280;33060;50.178;7.570;2023-12-20T00:48:29;96916.41;;;6.56;100.00
47330;BME280;33060;50.178;7.570;2023-12-20T00:50:57;96922.25;;;6.45;100.00
47330;BME280;33060;50.178;7.570;2023-12-20T00:53:24;96910.19;;;6.72;100.00
47330;BME280;33060;50.178;7.570;2023-12-20T00:55:51;96903.19;;;6.73;100.00
47330;BME280;33060;50.178;7.570;2023-12-20T00:58:17;96913.66;;;6.73;100.00
47330;BME280;33060;50.178;7.570;2023-12-20T01:00:44;96904.31;;;6.53;100.00
47330;BME280;33060;50.178;7.570;2023-12-20T01:03:11;96910.75;;;6.47;100.00
47330;BME280;33060;50.178;7.570;2023-12-20T01:05:38;96919.28;;;6.35;100.00
47330;BME280;33060;50.178;7.570;2023-12-20T01:08:05;96912.28;;;6.51;100.00
47330;BME280;33060;50.178;7.570;2023-12-20T01:10:31;96908.41;;;6.27;100.00
47330;BME280;33060;50.178;7.570;2023-12-20T01:12:58;96904.16;;;6.40;100.00
47330;BME280;33060;50.178;7.570;2023-12-20T01:15:25;96922.91;;;6.64;100.00
47330;BME280;33060;50.178;7.570;2023-12-20T01:17:51;96928.66;;;6.39;100.00
47330;BME280;33060;50.178;7.570;2023-12-20T01:20:18;96931.69;;;6.47;100.00
47330;BME280;33060;50.178;7.570;2023-12-20T01:22:46;96913.97;;;6.21;100.00
47330;BME280;33060;50.178;7.570;2023-12-20T01:25:13;96914.09;;;6.49;100.00
47330;BME280;33060;50.178;7.570;2023-12-20T01:27:40;96914.94;;;6.50;100.00
47330;BME280;33060;50.178;7.570;2023-12-20T01:30:07;96917.22;;;6.72;100.00
47330;BME280;33060;50.178;7.570;2023-12-20T01:32:34;96910.38;;;6.69;100.00
47330;BME280;33060;50.178;7.570;2023-12-20T01:35:00;96906.09;;;6.53;100.00
47330;BME280;33060;50.178;7.570;2023-12-20T01:37:29;96918.78;;;6.44;100.00
47330;BME280;33060;50.178;7.570;2023-12-20T01:39:56;96914.53;;;6.42;100.00
47330;BME280;33060;50.178;7.570;2023-12-20T01:42:22;96916.22;;;6.59;100.00
47330;BME280;33060;50.178;7.570;2023-12-20T01:44:49;96921.97;;;6.65;100.00
47330;BME280;33060;50.178;7.570;2023-12-20T01:47:22;96911.13;;;6.71;100.00
47330;BME280;33060;50.178;7.570;2023-12-20T01:49:49;96907.69;;;6.55;100.00
47330;BME280;33060;50.178;7.570;2023-12-20T01:52:16;96903.94;;;6.59;100.00
47330;BME280;33060;50.178;7.570;2023-12-20T01:54:44;96909.13;;;6.61;100.00
47330;BME280;33060;50.178;7.570;2023-12-20T01:57:10;96910.16;;;6.88;100.00
47330;BME280;33060;50.178;7.570;2023-12-20T01:59:39;96905.38;;;6.65;100.00
47330;BME280;33060;50.178;7.570;2023-12-20T02:02:07;96901.28;;;6.61;100.00
47330;BME280;33060;50.178;7.570;2023-12-20T02:04:34;96904.44;;;6.82;100.00
47330;BME280;33060;50.178;7.570;2023-12-20T02:07:02;96899.72;;;6.72;100.00
47330;BME280;33060;50.178;7.570;2023-12-20T02:09:30;96910.97;;;6.59;100.00
47330;BME280;33060;50.178;7.570;2023-12-20T02:11:56;96916.22;;;6.59;100.00
47330;BME280;33060;50.178;7.570;2023-12-20T02:14:23;96906.41;;;6.78;100.00
47330;BME280;33060;50.178;7.570;2023-12-20T02:16:50;96905.00;;;6.41;100.00
47330;BME280;33060;50.178;7.570;2023-12-20T02:19:17;96912.22;;;6.67;100.00
47330;BME280;33060;50.178;7.570;2023-12-20T02:21:44;96908.66;;;6.68;100.00
47330;BME280;33060;50.178;7.570;2023-12-20T02:24:11;96917.25;;;6.56;100.00
47330;BME280;33060;50.178;7.570;2023-12-20T02:26:38;96911.47;;;6.65;100.00
47330;BME280;33060;50.178;7.570;2023-12-20T02:29:04;96914.59;;;6.72;100.00
47330;BME280;33060;50.178;7.570;2023-12-20T02:31:31;96925.66;;;6.77;100.00
47330;BME280;33060;50.178;7.570;2023-12-20T02:33:59;96920.88;;;6.54;100.00
47330;BME280;33060;50.178;7.570;2023-12-20T02:36:26;96920.50;;;6.60;100.00
47330;BME280;33060;50.178;7.570;2023-12-20T02:38:52;96922.78;;;6.82;100.00
47330;BME280;33060;50.178;7.570;2023-12-20T02:41:19;96914.38;;;6.91;100.00
47330;BME280;33060;50.178;7.570;2023-12-20T02:43:46;96913.16;;;6.66;100.00
47330;BME280;33060;50.178;7.570;2023-12-20T02:46:14;96911.34;;;6.83;100.00
47330;BME280;33060;50.178;7.570;2023-12-20T02:48:42;96927.78;;;6.70;100.00
47330;BME280;33060;50.178;7.570;2023-12-20T02:51:09;96927.47;;;6.45;100.00
47330;BME280;33060;50.178;7.570;2023-12-20T02:53:35;96925.59;;;6.63;100.00
47330;BME280;33060;50.178;7.570;2023-12-20T02:56:02;96920.59;;;6.74;100.00
47330;BME280;33060;50.178;7.570;2023-12-20T02:58:29;96929.59;;;6.54;100.00
47330;BME280;33060;50.178;7.570;2023-12-20T03:00:56;96932.34;;;6.67;100.00
47330;BME280;33060;50.178;7.570;2023-12-20T03:03:22;96932.13;;;6.56;100.00
47330;BME280;33060;50.178;7.570;2023-12-20T03:05:49;96934.03;;;6.68;100.00
47330;BME280;33060;50.178;7.570;2023-12-20T03:08:16;96938.06;;;6.43;100.00
47330;BME280;33060;50.178;7.570;2023-12-20T03:10:42;96932.03;;;6.57;100.00
47330;BME280;33060;50.178;7.570;2023-12-20T03:13:09;96942.75;;;6.68;100.00
47330;BME280;33060;50.178;7.570;2023-12-20T03:15:36;96958.41;;;6.54;100.00
47330;BME280;33060;50.178;7.570;2023-12-20T03:18:04;96962.13;;;6.66;100.00
47330;BME280;33060;50.178;7.570;2023-12-20T03:20:30;96967.03;;;6.40;100.00
47330;BME280;33060;50.178;7.570;2023-12-20T03:23:00;96970.38;;;6.42;100.00
47330;BME280;33060;50.178;7.570;2023-12-20T03:25:27;96971.34;;;6.26;100.00
47330;BME280;33060;50.178;7.570;2023-12-20T03:27:54;96975.16;;;6.51;100.00
47330;BME280;33060;50.178;7.570;2023-12-20T03:30:21;96971.25;;;6.27;100.00
47330;BME280;33060;50.178;7.570;2023-12-20T03:32:47;96989.41;;;6.30;100.00
47330;BME280;33060;50.178;7.570;2023-12-20T03:35:14;96996.88;;;6.05;100.00
47330;BME280;33060;50.178;7.570;2023-12-20T03:37:41;96995.59;;;5.96;100.00
47330;BME280;33060;50.178;7.570;2023-12-20T03:40:08;97002.78;;;5.75;100.00
47330;BME280;33060;50.178;7.570;2023-12-20T03:42:35;97009.69;;;5.76;100.00
47330;BME280;33060;50.178;7.570;2023-12-20T03:45:02;96999.25;;;5.59;100.00
47330;BME280;33060;50.178;7.570;2023-12-20T03:47:28;97004.69;;;5.54;100.00
47330;BME280;33060;50.178;7.570;2023-12-20T03:49:55;97001.69;;;5.62;100.00
47330;BME280;33060;50.178;7.570;2023-12-20T03:52:22;97013.78;;;5.30;100.00
47330;BME280;33060;50.178;7.570;2023-12-20T03:54:49;97012.91;;;5.12;100.00
47330;BME280;33060;50.178;7.570;2023-12-20T03:57:15;97023.31;;;5.14;100.00
47330;BME280;33060;50.178;7.570;2023-12-20T03:59:42;97021.41;;;5.17;100.00
47330;BME280;33060;50.178;7.570;2023-12-20T04:02:09;97019.84;;;4.96;100.00
47330;BME280;33060;50.178;7.570;2023-12-20T04:04:35;97015.69;;;5.09;100.00
47330;BME280;33060;50.178;7.570;2023-12-20T04:07:02;97014.69;;;5.29;100.00
47330;BME280;33060;50.178;7.570;2023-12-20T04:09:29;97012.34;;;5.24;100.00
47330;BME280;33060;50.178;7.570;2023-12-20T04:11:56;97007.88;;;5.26;100.00
47330;BME280;33060;50.178;7.570;2023-12-20T04:14:23;97011.84;;;5.16;100.00
47330;BME280;33060;50.178;7.570;2023-12-20T04:16:51;97012.22;;;5.08;100.00
47330;BME280;33060;50.178;7.570;2023-12-20T04:19:18;97017.69;;;5.38;100.00
47330;BME280;33060;50.178;7.570;2023-12-20T04:21:45;97014.03;;;5.25;100.00
47330;BME280;33060;50.178;7.570;2023-12-20T04:24:12;97015.41;;;5.50;100.00
47330;BME280;33060;50.178;7.570;2023-12-20T04:26:39;97012.81;;;5.50;100.00
47330;BME280;33060;50.178;7.570;2023-12-20T04:29:05;97003.53;;;5.77;100.00
47330;BME280;33060;50.178;7.570;2023-12-20T04:31:32;96995.03;;;5.39;100.00
47330;BME280;33060;50.178;7.570;2023-12-20T04:33:59;97001.31;;;5.52;100.00
47330;BME280;33060;50.178;7.570;2023-12-20T04:36:26;97004.94;;;5.50;100.00
47330;BME280;33060;50.178;7.570;2023-12-20T04:38:53;97015.09;;;5.21;100.00
47330;BME280;33060;50.178;7.570;2023-12-20T04:41:20;97032.03;;;5.31;100.00
47330;BME280;33060;50.178;7.570;2023-12-20T04:43:47;97031.31;;;5.28;100.00
47330;BME280;33060;50.178;7.570;2023-12-20T04:46:13;97026.72;;;5.50;100.00
47330;BME280;33060;50.178;7.570;2023-12-20T04:48:40;97027.94;;;5.60;100.00
47330;BME280;33060;50.178;7.570;2023-12-20T04:51:07;97026.09;;;5.62;100.00
47330;BME280;33060;50.178;7.570;2023-12-20T04:53:33;97019.94;;;5.46;100.00
47330;BME280;33060;50.178;7.570;2023-12-20T04:56:00;97025.78;;;5.51;100.00
47330;BME280;33060;50.178;7.570;2023-12-20T04:58:27;97022.56;;;5.46;100.00
47330;BME280;33060;50.178;7.570;2023-12-20T05:00:54;97023.63;;;5.25;100.00
47330;BME280;33060;50.178;7.570;2023-12-20T05:03:20;97027.78;;;5.29;100.00
47330;BME280;33060;50.178;7.570;2023-12-20T05:05:47;97023.47;;;5.45;100.00
47330;BME280;33060;50.178;7.570;2023-12-20T05:08:14;97033.00;;;5.63;100.00
47330;BME280;33060;50.178;7.570;2023-12-20T05:10:42;97027.50;;;5.52;100.00
47330;BME280;33060;50.178;7.570;2023-12-20T05:13:08;97036.25;;;5.51;100.00
47330;BME280;33060;50.178;7.570;2023-12-20T05:15:35;97037.09;;;5.34;100.00
47330;BME280;33060;50.178;7.570;2023-12-20T05:18:02;97037.72;;;5.22;100.00
47330;BME280;33060;50.178;7.570;2023-12-20T05:20:29;97046.63;;;5.35;100.00
47330;BME280;33060;50.178;7.570;2023-12-20T05:22:56;97044.78;;;5.37;100.00
47330;BME280;33060;50.178;7.570;2023-12-20T05:25:22;97050.88;;;5.02;100.00
47330;BME280;33060;50.178;7.570;2023-12-20T05:27:49;97046.97;;;5.10;100.00
47330;BME280;33060;50.178;7.570;2023-12-20T05:30:16;97040.16;;;5.25;100.00
47330;BME280;33060;50.178;7.570;2023-12-20T05:32:42;97032.03;;;5.31;100.00
47330;BME280;33060;50.178;7.570;2023-12-20T05:35:09;97046.50;;;5.21;100.00
47330;BME280;33060;50.178;7.570;2023-12-20T05:37:36;97042.72;;;5.27;100.00
47330;BME280;33060;50.178;7.570;2023-12-20T05:40:03;97038.50;;;5.42;100.00
47330;BME280;33060;50.178;7.570;2023-12-20T05:42:30;97037.03;;;5.53;100.00
47330;BME280;33060;50.178;7.570;2023-12-20T05:44:57;97037.09;;;5.34;100.00
47330;BME280;33060;50.178;7.570;2023-12-20T05:47:31;97038.56;;;5.23;100.00
47330;BME280;33060;50.178;7.570;2023-12-20T05:49:58;97038.28;;;5.10;100.00
47330;BME280;33060;50.178;7.570;2023-12-20T05:52:25;97038.94;;;5.32;100.00
47330;BME280;33060;50.178;7.570;2023-12-20T05:54:51;97044.56;;;5.42;100.00
47330;BME280;33060;50.178;7.570;2023-12-20T05:57:18;97047.94;;;5.44;100.00
47330;BME280;33060;50.178;7.570;2023-12-20T05:59:45;97055.25;;;5.37;100.00
47330;BME280;33060;50.178;7.570;2023-12-20T06:02:12;97051.28;;;5.48;100.00
47330;BME280;33060;50.178;7.570;2023-12-20T06:04:42;97053.25;;;5.43;100.00
47330;BME280;33060;50.178;7.570;2023-12-20T06:07:13;97047.16;;;5.25;100.00
47330;BME280;33060;50.178;7.570;2023-12-20T06:09:41;97040.00;;;5.28;100.00
47330;BME280;33060;50.178;7.570;2023-12-20T06:12:07;97050.81;;;5.39;100.00
47330;BME280;33060;50.178;7.570;2023-12-20T06:14:34;97045.41;;;5.43;100.00
47330;BME280;33060;50.178;7.570;2023-12-20T06:17:01;97049.53;;;5.29;100.00
47330;BME280;33060;50.178;7.570;2023-12-20T06:19:28;97044.69;;;5.04;100.00
47330;BME280;33060;50.178;7.570;2023-12-20T06:21:55;97043.38;;;4.96;100.00
47330;BME280;33060;50.178;7.570;2023-12-20T06:24:21;97040.25;;;4.88;100.00
47330;BME280;33060;50.178;7.570;2023-12-20T06:26:48;97050.34;;;4.76;100.00
47330;BME280;33060;50.178;7.570;2023-12-20T06:29:15;97045.97;;;4.96;100.00
47330;BME280;33060;50.178;7.570;2023-12-20T06:31:41;97054.66;;;4.77;100.00
47330;BME280;33060;50.178;7.570;2023-12-20T06:34:08;97054.94;;;4.90;100.00
47330;BME280;33060;50.178;7.570;2023-12-20T06:36:35;97060.38;;;5.04;100.00
47330;BME280;33060;50.178;7.570;2023-12-20T06:39:02;97058.19;;;4.95;100.00
47330;BME280;33060;50.178;7.570;2023-12-20T06:41:30;97048.16;;;5.05;100.00
47330;BME280;33060;50.178;7.570;2023-12-20T06:43:57;97049.34;;;4.98;100.00
47330;BME280;33060;50.178;7.570;2023-12-20T06:46:24;97042.19;;;5.01;100.00
47330;BME280;33060;50.178;7.570;2023-12-20T06:48:51;97053.03;;;4.94;100.00
47330;BME280;33060;50.178;7.570;2023-12-20T06:51:18;97056.47;;;4.94;100.00
47330;BME280;33060;50.178;7.570;2023-12-20T06:53:46;97053.03;;;4.94;100.00
47330;BME280;33060;50.178;7.570;2023-12-20T06:56:13;97062.56;;;4.95;100.00
47330;BME280;33060;50.178;7.570;2023-12-20T06:58:44;97055.66;;;4.75;100.00
47330;BME280;33060;50.178;7.570;2023-12-20T07:01:12;97058.34;;;4.73;100.00
47330;BME280;33060;50.178;7.570;2023-12-20T07:03:39;97058.06;;;4.79;100.00
47330;BME280;33060;50.178;7.570;2023-12-20T07:06:06;97061.72;;;4.75;100.00
47330;BME280;33060;50.178;7.570;2023-12-20T07:08:33;97059.97;;;4.76;100.00
47330;BME280;33060;50.178;7.570;2023-12-20T07:11:00;97073.34;;;4.70;100.00
47330;BME280;33060;50.178;7.570;2023-12-20T07:13:27;97073.94;;;4.75;100.00
47330;BME280;33060;50.178;7.570;2023-12-20T07:15:54;97084.88;;;5.02;100.00
47330;BME280;33060;50.178;7.570;2023-12-20T07:18:21;97074.97;;;5.08;100.00
47330;BME280;33060;50.178;7.570;2023-12-20T07:20:47;97070.56;;;5.45;100.00
47330;BME280;33060;50.178;7.570;2023-12-20T07:23:14;97068.41;;;5.00;100.00
47330;BME280;33060;50.178;7.570;2023-12-20T07:25:41;97070.50;;;5.10;100.00
47330;BME280;33060;50.178;7.570;2023-12-20T07:28:07;97069.53;;;5.13;100.00
47330;BME280;33060;50.178;7.570;2023-12-20T07:30:34;97070.88;;;5.39;100.00
47330;BME280;33060;50.178;7.570;2023-12-20T07:33:01;97075.38;;;5.18;100.00
47330;BME280;33060;50.178;7.570;2023-12-20T07:35:29;97079.88;;;5.51;100.00
47330;BME280;33060;50.178;7.570;2023-12-20T07:37:56;97083.38;;;5.15;100.00
47330;BME280;33060;50.178;7.570;2023-12-20T07:40:22;97089.53;;;5.14;100.00
47330;BME280;33060;50.178;7.570;2023-12-20T07:42:50;97088.44;;;5.18;100.00
47330;BME280;33060;50.178;7.570;2023-12-20T07:45:17;97092.28;;;5.11;100.00
47330;BME280;33060;50.178;7.570;2023-12-20T07:47:44;97079.31;;;5.27;100.00
47330;BME280;33060;50.178;7.570;2023-12-20T07:50:11;97080.25;;;5.26;100.00
47330;BME280;33060;50.178;7.570;2023-12-20T07:52:38;97083.72;;;5.44;100.00
47330;BME280;33060;50.178;7.570;2023-12-20T07:55:05;97090.72;;;5.43;100.00
47330;BME280;33060;50.178;7.570;2023-12-20T07:57:32;97098.38;;;5.29;100.00
47330;BME280;33060;50.178;7.570;2023-12-20T07:59:59;97096.31;;;5.35;100.00
47330;BME280;33060;50.178;7.570;2023-12-20T08:02:25;97104.09;;;5.37;100.00
47330;BME280;33060;50.178;7.570;2023-12-20T08:04:52;97103.78;;;5.26;100.00
47330;BME280;33060;50.178;7.570;2023-12-20T08:07:19;97094.78;;;5.31;100.00
47330;BME280;33060;50.178;7.570;2023-12-20T08:09:46;97099.34;;;5.62;100.00
47330;BME280;33060;50.178;7.570;2023-12-20T08:12:12;97113.06;;;5.67;100.00
47330;BME280;33060;50.178;7.570;2023-12-20T08:14:39;97108.19;;;5.43;100.00
47330;BME280;33060;50.178;7.570;2023-12-20T08:17:06;97112.16;;;5.68;100.00
47330;BME280;33060;50.178;7.570;2023-12-20T08:19:33;97104.03;;;5.56;100.00
47330;BME280;33060;50.178;7.570;2023-12-20T08:21:59;97106.22;;;5.82;100.00
47330;BME280;33060;50.178;7.570;2023-12-20T08:24:26;97112.38;;;5.81;100.00
47330;BME280;33060;50.178;7.570;2023-12-20T08:26:53;97108.59;;;5.70;100.00
47330;BME280;33060;50.178;7.570;2023-12-20T08:29:20;97105.06;;;5.88;100.00
47330;BME280;33060;50.178;7.570;2023-12-20T08:31:52;97109.44;;;5.70;100.00
47330;BME280;33060;50.178;7.570;2023-12-20T08:34:19;97101.75;;;5.67;100.00
47330;BME280;33060;50.178;7.570;2023-12-20T08:36:45;97104.28;;;5.86;100.00
47330;BME280;33060;50.178;7.570;2023-12-20T08:39:12;97100.69;;;6.06;100.00
47330;BME280;33060;50.178;7.570;2023-12-20T08:41:39;97112.63;;;5.77;100.00
47330;BME280;33060;50.178;7.570;2023-12-20T08:44:06;97117.13;;;5.73;100.00
47330;BME280;33060;50.178;7.570;2023-12-20T08:46:32;97117.88;;;5.94;100.00
47330;BME280;33060;50.178;7.570;2023-12-20T08:48:59;97114.09;;;5.82;100.00
47330;BME280;33060;50.178;7.570;2023-12-20T08:51:27;97105.56;;;5.96;100.00
47330;BME280;33060;50.178;7.570;2023-12-20T08:53:54;97108.25;;;5.94;100.00
47330;BME280;33060;50.178;7.570;2023-12-20T08:56:21;97103.78;;;5.97;100.00
47330;BME280;33060;50.178;7.570;2023-12-20T08:58:47;97112.28;;;6.35;100.00
47330;BME280;33060;50.178;7.570;2023-12-20T09:01:14;97121.44;;;5.93;100.00
47330;BME280;33060;50.178;7.570;2023-12-20T09:03:42;97119.28;;;6.01;100.00
47330;BME280;33060;50.178;7.570;2023-12-20T09:06:08;97112.34;;;6.00;100.00
47330;BME280;33060;50.178;7.570;2023-12-20T09:08:35;97105.13;;;5.86;100.00
47330;BME280;33060;50.178;7.570;2023-12-20T09:11:02;97114.75;;;5.86;100.00
47330;BME280;33060;50.178;7.570;2023-12-20T09:13:29;97112.22;;;5.84;100.00
47330;BME280;33060;50.178;7.570;2023-12-20T09:15:58;97098.69;;;6.11;100.00
47330;BME280;33060;50.178;7.570;2023-12-20T09:18:25;97103.06;;;6.28;100.00
47330;BME280;33060;50.178;7.570;2023-12-20T09:20:52;97103.88;;;6.45;100.00
47330;BME280;33060;50.178;7.570;2023-12-20T09:23:19;97102.63;;;6.02;100.00
47330;BME280;33060;50.178;7.570;2023-12-20T09:25:46;97110.03;;;6.44;100.00
47330;BME280;33060;50.178;7.570;2023-12-20T09:28:12;97102.94;;;6.46;100.00
47330;BME280;33060;50.178;7.570;2023-12-20T09:30:39;97108.97;;;6.31;100.00
47330;BME280;33060;50.178;7.570;2023-12-20T09:33:07;97108.34;;;6.59;100.00
47330;BME280;33060;50.178;7.570;2023-12-20T09:35:35;97102.31;;;6.74;100.00
47330;BME280;33060;50.178;7.570;2023-12-20T09:38:02;97112.47;;;6.14;100.00
47330;BME280;33060;50.178;7.570;2023-12-20T09:40:29;97110.59;;;6.16;100.00
47330;BME280;33060;50.178;7.570;2023-12-20T09:43:03;97115.28;;;6.44;100.00
47330;BME280;33060;50.178;7.570;2023-12-20T09:45:31;97125.63;;;6.13;100.00
47330;BME280;33060;50.178;7.570;2023-12-20T09:47:58;97126.38;;;6.65;100.00
47330;BME280;33060;50.178;7.570;2023-12-20T09:50:26;97134.16;;;6.34;100.00
47330;BME280;33060;50.178;7.570;2023-12-20T09:52:54;97125.00;;;6.25;100.00
47330;BME280;33060;50.178;7.570;2023-12-20T09:55:27;97125.38;;;6.68;100.00
47330;BME280;33060;50.178;7.570;2023-12-20T09:57:54;97117.50;;;6.68;100.00
47330;BME280;33060;50.178;7.570;2023-12-20T10:00:21;97120.63;;;6.59;100.00
47330;BME280;33060;50.178;7.570;2023-12-20T10:02:59;97110.06;;;6.76;100.00
47330;BME280;33060;50.178;7.570;2023-12-20T10:05:31;97103.81;;;6.63;100.00
47330;BME280;33060;50.178;7.570;2023-12-20T10:07:59;97103.28;;;6.56;100.00
47330;BME280;33060;50.178;7.570;2023-12-20T10:10:27;97097.31;;;6.70;100.00
47330;BME280;33060;50.178;7.570;2023-12-20T10:13:10;97093.34;;;6.63;100.00
47330;BME280;33060;50.178;7.570;2023-12-20T10:15:38;97098.78;;;6.42;100.00
47330;BME280;33060;50.178;7.570;2023-12-20T10:18:05;97097.59;;;6.97;100.00
47330;BME280;33060;50.178;7.570;2023-12-20T10:20:32;97088.47;;;6.88;100.00
47330;BME280;33060;50.178;7.570;2023-12-20T10:23:00;97094.44;;;6.90;100.00
47330;BME280;33060;50.178;7.570;2023-12-20T10:25:28;97097.50;;;6.83;100.00
47330;BME280;33060;50.178;7.570;2023-12-20T10:28:15;97096.56;;;6.99;100.00
47330;BME280;33060;50.178;7.570;2023-12-20T10:30:46;97085.06;;;7.02;100.00
47330;BME280;33060;50.178;7.570;2023-12-20T10:33:24;97095.88;;;6.80;100.00
47330;BME280;33060;50.178;7.570;2023-12-20T10:35:52;97081.16;;;6.62;100.00
47330;BME280;33060;50.178;7.570;2023-12-20T10:38:18;97083.78;;;6.93;100.00
47330;BME280;33060;50.178;7.570;2023-12-20T10:40:46;97079.63;;;7.21;100.00
47330;BME280;33060;50.178;7.570;2023-12-20T10:43:12;97095.38;;;6.89;100.00
47330;BME280;33060;50.178;7.570;2023-12-20T10:45:41;97086.69;;;6.89;100.00
47330;BME280;33060;50.178;7.570;2023-12-20T10:48:10;97092.25;;;6.98;100.00
47330;BME280;33060;50.178;7.570;2023-12-20T10:50:38;97088.66;;;6.68;100.00
47330;BME280;33060;50.178;7.570;2023-12-20T10:53:06;97090.97;;;6.74;100.00
47330;BME280;33060;50.178;7.570;2023-12-20T10:55:33;97100.75;;;6.55;100.00
47330;BME280;33060;50.178;7.570;2023-12-20T10:58:04;97095.16;;;6.45;100.00
47330;BME280;33060;50.178;7.570;2023-12-20T11:00:38;97094.00;;;6.66;100.00
47330;BME280;33060;50.178;7.570;2023-12-20T11:03:08;97086.00;;;6.69;100.00
47330;BME280;33060;50.178;7.570;2023-12-20T11:08:20;97090.00;;;6.43;100.00
47330;BME280;33060;50.178;7.570;2023-12-20T11:13:23;97091.41;;;6.33;100.00
47330;BME280;33060;50.178;7.570;2023-12-20T11:15:53;97091.69;;;6.60;100.00
47330;BME280;33060;50.178;7.570;2023-12-20T11:18:28;97081.22;;;6.44;100.00
47330;BME280;33060;50.178;7.570;2023-12-20T11:21:00;97087.47;;;6.58;100.00
47330;BME280;33060;50.178;7.570;2023-12-20T11:23:29;97079.47;;;6.92;100.00
47330;BME280;33060;50.178;7.570;2023-12-20T11:25:57;97073.06;;;6.82;100.00
47330;BME280;33060;50.178;7.570;2023-12-20T11:28:27;97064.59;;;6.61;100.00
47330;BME280;33060;50.178;7.570;2023-12-20T11:30:55;97064.25;;;6.51;100.00
47330;BME280;33060;50.178;7.570;2023-12-20T11:33:24;97063.09;;;6.40;100.00
47330;BME280;33060;50.178;7.570;2023-12-20T11:35:56;97056.63;;;6.94;100.00
47330;BME280;33060;50.178;7.570;2023-12-20T11:38:23;97049.47;;;6.33;100.00
47330;BME280;33060;50.178;7.570;2023-12-20T11:40:53;97039.72;;;6.84;100.00
47330;BME280;33060;50.178;7.570;2023-12-20T11:43:37;97042.63;;;6.79;100.00
47330;BME280;33060;50.178;7.570;2023-12-20T11:46:09;97038.03;;;6.67;100.00
47330;BME280;33060;50.178;7.570;2023-12-20T11:48:38;97037.06;;;6.21;100.00
47330;BME280;33060;50.178;7.570;2023-12-20T11:51:10;97044.88;;;6.54;100.00
47330;BME280;33060;50.178;7.570;2023-12-20T11:53:38;97042.09;;;6.57;100.00
47330;BME280;33060;50.178;7.570;2023-12-20T11:56:06;97034.00;;;6.62;100.00
47330;BME280;33060;50.178;7.570;2023-12-20T11:58:35;97034.47;;;6.37;100.00
47330;BME280;33060;50.178;7.570;2023-12-20T12:01:03;97038.72;;;6.55;100.00
47330;BME280;33060;50.178;7.570;2023-12-20T12:03:32;97046.91;;;6.65;100.00
47330;BME280;33060;50.178;7.570;2023-12-20T12:06:00;97047.94;;;6.78;100.00
47330;BME280;33060;50.178;7.570;2023-12-20T12:08:28;97048.78;;;6.78;100.00
47330;BME280;33060;50.178;7.570;2023-12-20T12:10:55;97049.13;;;6.88;100.00
47330;BME280;33060;50.178;7.570;2023-12-20T12:13:23;97041.75;;;6.95;100.00
47330;BME280;33060;50.178;7.570;2023-12-20T12:15:54;97051.25;;;6.82;100.00
47330;BME280;33060;50.178;7.570;2023-12-20T12:18:22;97046.16;;;6.78;100.00
47330;BME280;33060;50.178;7.570;2023-12-20T12:20:49;97034.31;;;6.71;100.00
47330;BME280;33060;50.178;7.570;2023-12-20T12:23:23;97043.63;;;6.61;100.00
47330;BME280;33060;50.178;7.570;2023-12-20T12:25:54;97030.88;;;6.87;100.00
47330;BME280;33060;50.178;7.570;2023-12-20T12:28:26;97025.16;;;6.94;100.00
47330;BME280;33060;50.178;7.570;2023-12-20T12:30:59;97025.19;;;6.63;100.00
47330;BME280;33060;50.178;7.570;2023-12-20T12:33:26;97017.91;;;6.84;100.00
47330;BME280;33060;50.178;7.570;2023-12-20T12:35:54;97016.22;;;6.83;100.00
47330;BME280;33060;50.178;7.570;2023-12-20T12:38:22;97022.72;;;6.44;100.00
47330;BME280;33060;50.178;7.570;2023-12-20T12:40:51;97028.38;;;6.68;100.00
47330;BME280;33060;50.178;7.570;2023-12-20T12:43:20;97028.91;;;6.59;100.00
47330;BME280;33060;50.178;7.570;2023-12-20T12:45:50;97023.94;;;6.70;100.00
47330;BME280;33060;50.178;7.570;2023-12-20T12:48:17;97014.78;;;6.93;100.00
47330;BME280;33060;50.178;7.570;2023-12-20T12:50:48;97013.41;;;7.01;100.00
47330;BME280;33060;50.178;7.570;2023-12-20T12:53:16;97012.09;;;6.78;100.00
47330;BME280;33060;50.178;7.570;2023-12-20T12:55:43;97004.22;;;6.78;100.00
47330;BME280;33060;50.178;7.570;2023-12-20T12:58:11;96994.84;;;6.74;100.00
47330;BME280;33060;50.178;7.570;2023-12-20T13:00:38;96987.81;;;6.75;100.00
47330;BME280;33060;50.178;7.570;2023-12-20T13:03:04;96978.44;;;6.87;100.00
47330;BME280;33060;50.178;7.570;2023-12-20T13:05:31;96979.84;;;6.76;100.00
47330;BME280;33060;50.178;7.570;2023-12-20T13:08:03;96972.88;;;7.07;100.00